createdAt,value
2019-01-18T00:00:39.358Z,94986.84
2019-01-18T00:03:08.369Z,94988.90
2019-01-18T00:05:37.274Z,94980.61
2019-01-18T00:08:06.516Z,94981.60
2019-01-18T00:10:35.315Z,94983.75
2019-01-18T00:13:04.275Z,94984.52
2019-01-18T00:15:32.958Z,94978.59
2019-01-18T00:18:01.719Z,94986.50
2019-01-18T00:20:30.431Z,94991.49
2019-01-18T00:22:59.144Z,94978.05
2019-01-18T00:25:27.890Z,94989.57
2019-01-18T00:27:56.636Z,94989.00
2019-01-18T00:30:25.267Z,94993.55
2019-01-18T00:32:53.968Z,94994.10
2019-01-18T00:35:22.687Z,94990.02
2019-01-18T00:37:51.324Z,94997.33
2019-01-18T00:40:21.518Z,94996.94
2019-01-18T00:42:50.148Z,94997.72
2019-01-18T00:45:20.158Z,94999.65
2019-01-18T00:47:48.888Z,94999.81
2019-01-18T00:50:19.320Z,94999.41
2019-01-18T00:52:48.058Z,94999.61
2019-01-18T00:55:17.194Z,95002.08
2019-01-18T00:57:45.936Z,95005.20
2019-01-18T01:00:23.377Z,94999.63
2019-01-18T01:02:52.327Z,95005.59
2019-01-18T01:05:21.829Z,95001.67
2019-01-18T01:07:50.738Z,94994.37
2019-01-18T01:10:19.368Z,94992.82
2019-01-18T01:12:48.016Z,94979.73
2019-01-18T01:15:19.655Z,94987.04
2019-01-18T01:17:49.059Z,94986.22
2019-01-18T01:20:20.160Z,94990.77
2019-01-18T01:22:48.910Z,94986.09
2019-01-18T01:25:17.812Z,94985.83
2019-01-18T01:27:46.817Z,94989.81
2019-01-18T01:30:20.688Z,94984.45
2019-01-18T01:32:49.386Z,94983.10
2019-01-18T01:35:18.399Z,94978.48
2019-01-18T01:37:47.088Z,94971.16
2019-01-18T01:40:18.212Z,94979.06
2019-01-18T01:42:47.022Z,94973.00
2019-01-18T01:45:16.274Z,94971.61
2019-01-18T01:47:44.906Z,94963.67
2019-01-18T01:50:16.695Z,94968.78
2019-01-18T01:52:45.450Z,94964.45
2019-01-18T01:55:19.878Z,94960.84
2019-01-18T01:57:48.525Z,94964.98
2019-01-18T02:00:23.065Z,94960.77
2019-01-18T02:02:51.873Z,94959.90
2019-01-18T02:05:20.516Z,94954.88
2019-01-18T02:07:49.198Z,94960.67
2019-01-18T02:10:19.197Z,94952.84
2019-01-18T02:12:48.650Z,94960.12
2019-01-18T02:15:19.874Z,94957.78
2019-01-18T02:17:48.615Z,94954.66
2019-01-18T02:20:19.861Z,94952.83
2019-01-18T02:22:48.940Z,94952.89
2019-01-18T02:25:18.154Z,94965.11
2019-01-18T02:27:47.276Z,94962.70
2019-01-18T02:30:24.569Z,94966.00
2019-01-18T02:32:53.416Z,94965.04
2019-01-18T02:35:22.138Z,94965.61
2019-01-18T02:37:50.816Z,94966.91
2019-01-18T02:40:19.524Z,94963.20
2019-01-18T02:42:48.161Z,94961.03
2019-01-18T02:45:19.578Z,94960.67
2019-01-18T02:47:48.504Z,94953.27
2019-01-18T02:50:17.347Z,94958.63
2019-01-18T02:52:46.449Z,94954.87
2019-01-18T02:55:15.209Z,94955.31
2019-01-18T02:57:43.846Z,94959.08
2019-01-18T03:00:20.587Z,94959.41
2019-01-18T03:02:49.323Z,94955.23
2019-01-18T03:05:20.572Z,94949.61
2019-01-18T03:07:49.435Z,94952.03
2019-01-18T03:10:20.935Z,94955.20
2019-01-18T03:12:49.576Z,94946.55
2019-01-18T03:15:18.528Z,94954.67
2019-01-18T03:17:47.092Z,94955.44
2019-01-18T03:20:17.027Z,94949.17
2019-01-18T03:25:33.538Z,94955.83
2019-01-18T03:28:02.087Z,94952.37
2019-01-18T03:30:30.721Z,94942.44
2019-01-18T03:32:59.363Z,94939.17
2019-01-18T03:35:28.054Z,94940.44
2019-01-18T03:37:56.559Z,94937.19
2019-01-18T03:40:26.715Z,94937.47
2019-01-18T03:42:55.406Z,94928.27
2019-01-18T03:45:24.042Z,94933.39
2019-01-18T03:47:52.683Z,94936.92
2019-01-18T03:50:24.019Z,94949.42
2019-01-18T03:52:52.672Z,94936.91
2019-01-18T03:55:27.345Z,94944.23
2019-01-18T03:57:55.966Z,94937.45
2019-01-18T04:00:28.800Z,94940.63
2019-01-18T04:02:57.641Z,94941.80
2019-01-18T04:05:26.530Z,94935.48
2019-01-18T04:07:55.335Z,94932.23
2019-01-18T04:10:24.377Z,94929.59
2019-01-18T04:12:53.044Z,94931.94
2019-01-18T04:15:24.187Z,94934.38
2019-01-18T04:17:52.825Z,94929.64
2019-01-18T04:20:22.876Z,94938.84
2019-01-18T04:22:51.665Z,94937.02
2019-01-18T04:25:22.179Z,94944.32
2019-01-18T04:27:50.829Z,94948.08
2019-01-18T04:30:22.022Z,94945.99
2019-01-18T04:32:51.073Z,94948.94
2019-01-18T04:35:19.924Z,94941.17
2019-01-18T04:37:48.723Z,94934.22
2019-01-18T04:40:25.536Z,94936.20
2019-01-18T04:42:54.329Z,94945.56
2019-01-18T04:45:23.772Z,94937.80
2019-01-18T04:47:52.409Z,94944.80
2019-01-18T04:50:23.864Z,94940.15
2019-01-18T04:52:52.517Z,94943.84
2019-01-18T04:55:21.265Z,94945.16
2019-01-18T04:57:50.134Z,94947.33
2019-01-18T05:00:24.866Z,94944.83
2019-01-18T05:02:53.513Z,94944.92
2019-01-18T05:05:22.547Z,94944.71
2019-01-18T05:07:51.185Z,94942.84
2019-01-18T05:10:22.020Z,94948.58
2019-01-18T05:12:50.728Z,94943.05
2019-01-18T05:15:21.652Z,94942.06
2019-01-18T05:17:50.306Z,94941.64
2019-01-18T05:20:19.739Z,94941.14
2019-01-18T05:22:48.675Z,94943.79
2019-01-18T05:25:17.311Z,94947.92
2019-01-18T05:27:45.897Z,94950.88
2019-01-18T05:30:26.189Z,94955.28
2019-01-18T05:32:55.030Z,94951.68
2019-01-18T05:35:23.667Z,94952.06
2019-01-18T05:37:52.366Z,94956.56
2019-01-18T05:40:22.402Z,94955.09
2019-01-18T05:42:50.985Z,94960.91
2019-01-18T05:45:21.545Z,94960.91
2019-01-18T05:47:50.368Z,94965.39
2019-01-18T05:50:21.934Z,94964.11
2019-01-18T05:52:50.796Z,94962.77
2019-01-18T05:55:19.536Z,94962.08
2019-01-18T05:57:48.227Z,94971.77
2019-01-18T06:00:32.902Z,94965.25
2019-01-18T06:03:01.476Z,94964.65
2019-01-18T06:05:30.893Z,94959.68
2019-01-18T06:07:59.601Z,94968.98
2019-01-18T06:10:28.253Z,94972.89
2019-01-18T06:12:56.833Z,94968.97
2019-01-18T06:15:25.509Z,94976.06
2019-01-18T06:17:54.143Z,94974.84
2019-01-18T06:20:22.791Z,94973.92
2019-01-18T06:22:51.612Z,94970.00
2019-01-18T06:25:20.271Z,94972.70
2019-01-18T06:27:48.930Z,94970.03
2019-01-18T06:30:18.902Z,94979.00
2019-01-18T06:32:47.575Z,94973.68
2019-01-18T06:35:16.432Z,94971.24
2019-01-18T06:37:45.398Z,94975.84
2019-01-18T06:40:16.877Z,94970.97
2019-01-18T06:42:45.511Z,94966.44
2019-01-18T06:45:16.768Z,94972.11
2019-01-18T06:47:45.405Z,94975.05
2019-01-18T06:50:16.243Z,94978.19
2019-01-18T06:52:45.030Z,94981.77
2019-01-18T06:55:13.762Z,94973.67
2019-01-18T06:57:42.404Z,94968.63
2019-01-18T07:00:14.119Z,94963.28
2019-01-18T07:02:42.763Z,94974.82
2019-01-18T07:05:11.386Z,94971.11
2019-01-18T07:07:39.996Z,94971.13
2019-01-18T07:10:11.948Z,94970.97
2019-01-18T07:12:40.579Z,94967.55
2019-01-18T07:15:11.700Z,94957.70
2019-01-18T07:17:40.608Z,94948.95
2019-01-18T07:20:12.100Z,94945.41
2019-01-18T07:22:40.748Z,94959.25
2019-01-18T07:25:26.367Z,94964.78
2019-01-18T07:27:55.010Z,94967.75
2019-01-18T07:30:32.538Z,94974.86
2019-01-18T07:33:01.174Z,94975.93
2019-01-18T07:35:29.798Z,94970.84
2019-01-18T07:38:04.934Z,94974.89
2019-01-18T07:40:33.577Z,94974.08
2019-01-18T07:43:02.222Z,94975.55
2019-01-18T07:45:31.884Z,94974.17
2019-01-18T07:48:00.534Z,94988.70
2019-01-18T07:50:29.114Z,94971.11
2019-01-18T07:52:58.085Z,94987.25
2019-01-18T07:55:26.728Z,94983.67
2019-01-18T07:57:55.352Z,94979.41
2019-01-18T08:00:28.915Z,94985.43
2019-01-18T08:02:57.642Z,94988.23
2019-01-18T08:05:27.771Z,94991.02
2019-01-18T08:07:56.642Z,94999.33
2019-01-18T08:10:25.677Z,94999.78
2019-01-18T08:12:54.450Z,94995.58
2019-01-18T08:15:25.921Z,95006.93
2019-01-18T08:17:54.550Z,95011.34
2019-01-18T08:20:24.991Z,95010.19
2019-01-18T08:22:53.990Z,95005.38
2019-01-18T08:25:22.632Z,95009.09
2019-01-18T08:27:51.256Z,94987.60
2019-01-18T08:30:21.845Z,95007.48
2019-01-18T08:32:50.483Z,95003.28
2019-01-18T08:35:20.616Z,95008.30
2019-01-18T08:37:49.418Z,95015.42
2019-01-18T08:40:32.375Z,95000.19
2019-01-18T08:43:01.046Z,94998.14
2019-01-18T08:45:32.553Z,95007.22
2019-01-18T08:48:01.134Z,95002.89
2019-01-18T08:50:29.845Z,94993.88
2019-01-18T08:52:58.412Z,94986.35
2019-01-18T08:55:27.097Z,94987.52
2019-01-18T08:57:55.738Z,94990.12
2019-01-18T09:00:27.054Z,94997.41
2019-01-18T09:02:56.055Z,94992.06
2019-01-18T09:05:26.480Z,94988.23
2019-01-18T09:07:55.322Z,94987.20
2019-01-18T09:10:26.921Z,94985.28
2019-01-18T09:12:55.558Z,94983.45
2019-01-18T09:15:24.487Z,94989.98
2019-01-18T09:17:53.133Z,94989.78
2019-01-18T09:20:24.339Z,94983.72
2019-01-18T09:22:53.216Z,94980.11
2019-01-18T09:25:21.958Z,94975.22
2019-01-18T09:27:50.673Z,94965.44
2019-01-18T09:30:24.903Z,94963.84
2019-01-18T09:32:53.848Z,94958.18
2019-01-18T09:35:24.482Z,94944.48
2019-01-18T09:37:53.681Z,94947.52
2019-01-18T09:40:25.836Z,94945.70
2019-01-18T09:42:54.873Z,94942.58
2019-01-18T09:45:23.523Z,94935.64
2019-01-18T09:47:52.167Z,94933.22
2019-01-18T09:50:23.145Z,94933.58
2019-01-18T09:52:51.975Z,94935.34
2019-01-18T09:55:25.198Z,94931.09
2019-01-18T09:57:53.809Z,94937.11
2019-01-18T10:00:27.911Z,94926.73
2019-01-18T10:02:57.053Z,94922.55
2019-01-18T10:05:25.718Z,94920.61
2019-01-18T10:07:54.355Z,94916.70
2019-01-18T10:10:23.694Z,94910.03
2019-01-18T10:12:52.828Z,94914.31
2019-01-18T10:15:23.943Z,94909.34
2019-01-18T10:17:52.565Z,94908.86
2019-01-18T10:20:21.238Z,94895.69
2019-01-18T10:22:50.598Z,94895.52
2019-01-18T10:25:19.727Z,94886.84
2019-01-18T10:27:48.500Z,94891.48
2019-01-18T10:30:25.449Z,94889.25
2019-01-18T10:32:54.391Z,94890.27
2019-01-18T10:35:24.398Z,94888.86
2019-01-18T10:37:53.044Z,94874.67
2019-01-18T10:40:21.723Z,94871.58
2019-01-18T10:42:50.998Z,94879.23
2019-01-18T10:45:20.421Z,94868.94
2019-01-18T10:47:50.658Z,94873.29
2019-01-18T10:50:27.400Z,94870.45
2019-01-18T10:52:56.291Z,94860.45
2019-01-18T10:55:24.944Z,94864.50
2019-01-18T10:57:53.569Z,94857.56
2019-01-18T11:00:25.400Z,94861.02
2019-01-18T11:02:54.134Z,94863.25
2019-01-18T11:05:23.279Z,94851.38
2019-01-18T11:07:51.969Z,94856.73
2019-01-18T11:10:20.710Z,94848.88
2019-01-18T11:12:49.404Z,94852.66
2019-01-18T11:15:26.627Z,94841.73
2019-01-18T11:17:55.688Z,94835.33
2019-01-18T11:20:39.073Z,94828.75
2019-01-18T11:23:07.702Z,94825.62
2019-01-18T11:25:36.359Z,94824.61
2019-01-18T11:28:05.227Z,94826.06
2019-01-18T11:30:33.858Z,94822.39
2019-01-18T11:33:02.529Z,94820.56
2019-01-18T11:35:31.364Z,94817.55
2019-01-18T11:38:00.002Z,94826.13
2019-01-18T11:40:28.659Z,94817.84
2019-01-18T11:42:57.360Z,94821.02
2019-01-18T11:45:26.139Z,94820.17
2019-01-18T11:47:54.748Z,94810.52
2019-01-18T11:50:28.173Z,94815.02
2019-01-18T11:52:56.819Z,94822.88
2019-01-18T11:55:25.447Z,94831.24
2019-01-18T11:57:54.351Z,94825.10
2019-01-18T12:00:25.517Z,94831.11
2019-01-18T12:02:54.149Z,94831.33
2019-01-18T12:05:22.883Z,94823.36
2019-01-18T12:07:51.791Z,94821.65
2019-01-18T12:10:28.590Z,94823.55
2019-01-18T12:12:57.501Z,94818.50
2019-01-18T12:15:26.326Z,94820.19
2019-01-18T12:17:54.960Z,94809.28
2019-01-18T12:20:26.464Z,94807.12
2019-01-18T12:22:55.206Z,94810.54
2019-01-18T12:25:23.900Z,94812.95
2019-01-18T12:27:52.632Z,94810.54
2019-01-18T12:30:24.206Z,94803.17
2019-01-18T12:32:52.845Z,94800.19
2019-01-18T12:35:21.557Z,94809.30
2019-01-18T12:37:50.198Z,94816.30
2019-01-18T12:40:18.840Z,94815.27
2019-01-18T12:42:47.521Z,94819.92
2019-01-18T12:45:18.362Z,94810.84
2019-01-18T12:47:46.997Z,94820.88
2019-01-18T12:50:24.822Z,94814.67
2019-01-18T12:52:53.452Z,94813.09
2019-01-18T12:55:22.090Z,94808.83
2019-01-18T12:57:51.757Z,94810.55
2019-01-18T13:00:23.111Z,94811.28
2019-01-18T13:02:51.756Z,94807.85
2019-01-18T13:05:26.209Z,94814.03
2019-01-18T13:07:54.768Z,94805.69
2019-01-18T13:10:23.410Z,94807.38
2019-01-18T13:12:52.060Z,94817.64
2019-01-18T13:15:23.892Z,94822.88
2019-01-18T13:17:52.669Z,94825.86
2019-01-18T13:20:21.304Z,94818.53
2019-01-18T13:22:49.938Z,94824.85
2019-01-18T13:25:19.354Z,94825.69
2019-01-18T13:27:47.983Z,94828.54
2019-01-18T13:30:18.225Z,94818.23
2019-01-18T13:32:47.008Z,94806.91
2019-01-18T13:35:15.647Z,94812.63
2019-01-18T13:37:44.297Z,94807.23
2019-01-18T13:40:21.534Z,94806.15
2019-01-18T13:42:50.091Z,94810.72
2019-01-18T13:45:18.919Z,94813.48
2019-01-18T13:47:47.905Z,94810.61
2019-01-18T13:50:20.137Z,94814.85
2019-01-18T13:52:48.896Z,94821.17
2019-01-18T13:55:23.344Z,94822.91
2019-01-18T13:57:51.980Z,94821.38
2019-01-18T14:00:20.622Z,94828.03
2019-01-18T14:02:49.760Z,94828.50
2019-01-18T14:05:18.593Z,94829.62
2019-01-18T14:07:47.522Z,94827.59
2019-01-18T14:10:22.165Z,94828.08
2019-01-18T14:12:50.798Z,94820.51
2019-01-18T14:15:21.059Z,94813.89
2019-01-18T14:17:49.704Z,94807.02
2019-01-18T14:20:21.025Z,94803.03
2019-01-18T14:22:50.407Z,94801.59
2019-01-18T14:25:25.255Z,94809.13
2019-01-18T14:27:53.898Z,94807.53
2019-01-18T14:30:29.052Z,94797.19
2019-01-18T14:32:57.679Z,94803.11
2019-01-18T14:35:26.320Z,94798.12
2019-01-18T14:37:54.993Z,94796.84
2019-01-18T14:40:23.622Z,94789.88
2019-01-18T14:42:53.748Z,94791.74
2019-01-18T14:45:34.099Z,94788.71
2019-01-18T14:48:02.731Z,94789.45
2019-01-18T14:50:31.361Z,94801.67
2019-01-18T14:53:00.165Z,94808.73
2019-01-18T14:55:28.807Z,94811.93
2019-01-18T14:57:57.415Z,94815.92
2019-01-18T15:00:33.173Z,94819.98
2019-01-18T15:03:02.689Z,94821.95
2019-01-18T15:05:31.903Z,94821.09
2019-01-18T15:08:00.776Z,94820.22
2019-01-18T15:10:29.408Z,94814.27
2019-01-18T15:13:03.490Z,94814.21
2019-01-18T15:15:32.228Z,94814.18
2019-01-18T15:18:00.849Z,94808.29
2019-01-18T15:20:31.492Z,94809.49
2019-01-18T15:23:00.558Z,94811.83
2019-01-18T15:25:29.193Z,94809.97
2019-01-18T15:27:57.923Z,94817.28
2019-01-18T15:30:31.701Z,94813.74
2019-01-18T15:33:00.723Z,94814.92
2019-01-18T15:35:32.050Z,94809.30
2019-01-18T15:38:00.730Z,94813.52
2019-01-18T15:40:32.021Z,94814.30
2019-01-18T15:43:01.841Z,94826.35
2019-01-18T15:45:30.508Z,94816.42
2019-01-18T15:47:59.213Z,94819.48
2019-01-18T15:50:30.247Z,94813.59
2019-01-18T15:52:59.271Z,94817.89
2019-01-18T15:55:28.099Z,94813.70
2019-01-18T15:57:56.730Z,94821.06
2019-01-18T16:00:30.777Z,94814.66
2019-01-18T16:02:59.509Z,94817.95
2019-01-18T16:05:28.155Z,94820.23
2019-01-18T16:07:57.117Z,94823.70
2019-01-18T16:10:25.724Z,94821.88
2019-01-18T16:12:54.547Z,94833.94
2019-01-18T16:15:29.420Z,94820.41
2019-01-18T16:17:58.136Z,94826.47
2019-01-18T16:20:26.694Z,94828.75
2019-01-18T16:22:55.477Z,94811.98
2019-01-18T16:25:26.677Z,94832.22
2019-01-18T16:27:55.311Z,94828.54
2019-01-18T16:30:25.691Z,94842.97
2019-01-18T16:32:56.246Z,94836.20
2019-01-18T16:35:25.109Z,94853.07
2019-01-18T16:37:53.877Z,94842.91
2019-01-18T16:40:25.453Z,94847.42
2019-01-18T16:43:00.674Z,94843.69
2019-01-18T16:45:29.331Z,94841.91
2019-01-18T16:47:57.928Z,94829.84
2019-01-18T16:50:26.808Z,94841.98
2019-01-18T16:52:55.536Z,94833.18
2019-01-18T16:55:24.174Z,94840.78
2019-01-18T16:57:52.868Z,94840.78
2019-01-18T17:00:33.169Z,94836.88
2019-01-18T17:03:01.860Z,94837.25
2019-01-18T17:05:30.505Z,94840.44
2019-01-18T17:07:59.139Z,94841.42
2019-01-18T17:10:27.807Z,94844.49
2019-01-18T17:13:03.989Z,94850.05
2019-01-18T17:15:33.205Z,94854.09
2019-01-18T17:18:01.823Z,94853.23
2019-01-18T17:20:39.345Z,94849.52
2019-01-18T17:23:08.177Z,94849.39
2019-01-18T17:25:36.919Z,94853.81
2019-01-18T17:28:05.819Z,94850.20
2019-01-18T17:30:34.516Z,94848.83
2019-01-18T17:33:03.154Z,94852.67
2019-01-18T17:35:40.481Z,94853.52
2019-01-18T17:38:21.166Z,94853.12
2019-01-18T17:41:07.616Z,94856.95
2019-01-18T17:43:48.025Z,94850.36
2019-01-18T17:46:34.681Z,94848.77
2019-01-18T17:49:15.165Z,94852.16
2019-01-18T17:52:06.006Z,94854.77
2019-01-18T17:54:46.648Z,94844.79
2019-01-18T17:57:21.321Z,94851.16
2019-01-18T18:00:10.550Z,94846.96
2019-01-18T18:02:51.175Z,94835.91
2019-01-18T18:05:34.850Z,94837.55
2019-01-18T18:08:15.397Z,94843.77
2019-01-18T18:11:07.070Z,94842.27
2019-01-18T18:13:56.936Z,94853.04
2019-01-18T18:16:31.332Z,94843.08
2019-01-18T18:19:31.790Z,94850.18
2019-01-18T18:22:14.612Z,94837.90
2019-01-18T18:24:54.898Z,94844.58
2019-01-18T18:27:47.464Z,94845.48
2019-01-18T18:30:19.137Z,94844.72
2019-01-18T18:32:50.791Z,94839.81
2019-01-18T18:35:27.785Z,94848.00
2019-01-18T18:38:10.689Z,94850.03
2019-01-18T18:40:57.178Z,94849.26
2019-01-18T18:43:50.241Z,94852.68
2019-01-18T18:46:40.122Z,94844.38
2019-01-18T18:49:14.543Z,94847.06
2019-01-18T18:51:48.838Z,94853.58
2019-01-18T18:54:29.598Z,94848.53
2019-01-18T18:57:13.491Z,94851.94
2019-01-18T18:59:56.403Z,94852.97
2019-01-18T19:02:40.238Z,94852.52
2019-01-18T19:05:31.133Z,94861.30
2019-01-18T19:08:11.442Z,94857.23
2019-01-18T19:10:52.136Z,94853.41
2019-01-18T19:13:42.018Z,94854.90
2019-01-18T19:16:28.619Z,94862.09
2019-01-18T19:19:18.414Z,94864.64
2019-01-18T19:22:08.137Z,94858.96
2019-01-18T19:24:51.883Z,94860.98
2019-01-18T19:27:42.710Z,94851.80
2019-01-18T19:30:23.449Z,94860.58
2019-01-18T19:33:10.477Z,94865.16
2019-01-18T19:36:07.316Z,94860.36
2019-01-18T19:38:58.452Z,94862.48
2019-01-18T19:41:46.767Z,94865.31
2019-01-18T19:44:24.200Z,94869.58
2019-01-18T19:47:01.949Z,94871.92
2019-01-18T19:49:36.254Z,94872.39
2019-01-18T19:52:28.788Z,94872.27
2019-01-18T19:55:06.090Z,94882.42
2019-01-18T19:57:49.846Z,94872.92
2019-01-18T20:00:33.490Z,94881.63
2019-01-18T20:03:07.784Z,94882.55
2019-01-18T20:05:54.402Z,94887.56
2019-01-18T20:08:37.895Z,94879.32
2019-01-18T20:11:12.051Z,94886.70
2019-01-18T20:14:03.011Z,94881.98
2019-01-18T20:16:49.740Z,94874.38
2019-01-18T20:19:33.298Z,94871.69
2019-01-18T20:22:32.298Z,94880.22
2019-01-18T20:25:03.961Z,94886.20
2019-01-18T20:27:53.594Z,94880.31
2019-01-18T20:30:31.295Z,94896.05
2019-01-18T20:33:22.477Z,94896.03
2019-01-18T20:35:54.808Z,94894.35
2019-01-18T20:38:43.155Z,94896.16
2019-01-18T20:41:20.751Z,94895.22
2019-01-18T20:44:01.238Z,94902.38
2019-01-18T20:46:49.243Z,94905.20
2019-01-18T20:49:35.885Z,94912.63
2019-01-18T20:52:10.408Z,94913.74
2019-01-18T20:55:00.287Z,94913.53
2019-01-18T20:57:43.592Z,94912.65
2019-01-18T21:00:30.329Z,94918.20
2019-01-18T21:03:10.782Z,94920.43
2019-01-18T21:05:48.233Z,94921.57
2019-01-18T21:08:34.851Z,94925.56
2019-01-18T21:11:09.341Z,94924.02
2019-01-18T21:13:49.461Z,94927.08
2019-01-18T21:16:40.819Z,94914.50
2019-01-18T21:19:21.218Z,94930.05
2019-01-18T21:22:09.381Z,94929.70
2019-01-18T21:24:55.742Z,94935.64
2019-01-18T21:27:43.328Z,94942.16
2019-01-18T21:30:29.754Z,94947.81
2019-01-18T21:33:21.131Z,94939.37
2019-01-18T21:36:10.779Z,94949.48
2019-01-18T21:39:11.395Z,94949.16
2019-01-18T21:41:48.862Z,94944.28
2019-01-18T21:44:41.378Z,94953.20
2019-01-18T21:47:32.330Z,94946.48
2019-01-18T21:50:21.748Z,94945.42
2019-01-18T21:53:11.305Z,94944.41
2019-01-18T21:56:03.887Z,94940.70
2019-01-18T21:58:35.469Z,94944.55
2019-01-18T22:01:24.597Z,94935.72
2019-01-18T22:04:08.348Z,94938.09
2019-01-18T22:06:48.905Z,94928.77
2019-01-18T22:09:31.817Z,94929.19
2019-01-18T22:12:08.574Z,94932.34
2019-01-18T22:14:55.258Z,94934.32
2019-01-18T22:17:35.124Z,94934.60
2019-01-18T22:20:14.919Z,94938.00
2019-01-18T22:23:07.848Z,94935.43
2019-01-18T22:26:14.447Z,94942.97
2019-01-18T22:28:46.000Z,94939.00
2019-01-18T22:31:22.815Z,94938.70
2019-01-18T22:34:06.520Z,94940.27
2019-01-18T22:36:59.078Z,94939.82
2019-01-18T22:39:39.307Z,94938.77
2019-01-18T22:42:25.422Z,94940.98
2019-01-18T22:45:11.129Z,94939.40
2019-01-18T22:48:00.730Z,94947.22
2019-01-18T22:50:49.417Z,94942.48
2019-01-18T22:53:23.818Z,94936.20
2019-01-18T22:58:59.152Z,94919.97
2019-01-18T23:01:47.054Z,94934.34
2019-01-18T23:04:27.626Z,94935.11
2019-01-18T23:07:11.015Z,94935.25
2019-01-18T23:09:51.580Z,94927.99
2019-01-18T23:12:44.036Z,94937.22
2019-01-18T23:15:48.913Z,94936.44
2019-01-18T23:18:29.434Z,94934.17
2019-01-18T23:21:09.742Z,94932.12
2019-01-18T23:23:58.143Z,94922.61
2019-01-18T23:26:47.026Z,94933.97
2019-01-18T23:29:24.210Z,94935.31
2019-01-18T23:32:01.495Z,94936.94
2019-01-18T23:34:39.165Z,94945.17
2019-01-18T23:37:13.675Z,94952.63
2019-01-18T23:39:47.992Z,94951.73
2019-01-18T23:42:43.347Z,94956.98
2019-01-18T23:45:17.734Z,94955.97
2019-01-18T23:47:52.068Z,94962.75
2019-01-18T23:50:36.455Z,94960.08
2019-01-18T23:53:44.371Z,94961.30
2019-01-18T23:56:16.302Z,94960.53
2019-01-18T23:58:56.968Z,94964.97
